KLGU/LGU METAR and TAF weather

Enter ICAO airport designator
Station Type Date Time Source
KLGU METAR 2020/09/30 16:51 UTC NOAA

KLGU 301651Z AUTO VRB03KT FEW001 13/01 A3038 RMK AO2 SLP270 T01280011 PWINO $


Station Type Date Time Source
KLGU Decoded METAR 2020/09/30 16:51 UTC NOAA

LOGAN CACHE AIRPORT, UT, United States (KLGU) 41-47N 111-51W 1355M
Sep 30, 2020 - 12:51 PM EDT / 2020.09.30 1651 UTC
Wind: Variable at 3 MPH (3 KT):0
Sky conditions: mostly clear
Temperature: 55.0 F (12.8 C)
Dew Point: 34.0 F (1.1 C)
Relative Humidity: 44%
Pressure (altimeter): 30.38 in. Hg (1028 hPa)
ob: KLGU 301651Z AUTO VRB03KT FEW001 13/01 A3038 RMK AO2 SLP270 T01280011 PWINO
cycle: 17

Station Type Date Time Source
KLGU TAF 2020/09/30 12:22 UTC NOAA

TAF KLGU 301120Z 3012/0112 VRB04KT P6SM SKC

Example: see airport list